createdAt,value
2022-07-29T00:00:01.833Z,24.87
2022-07-29T00:02:33.032Z,24.79
2022-07-29T00:04:59.830Z,24.71
2022-07-29T00:07:26.564Z,24.51
2022-07-29T00:09:53.311Z,24.48
2022-07-29T00:12:25.075Z,24.51
2022-07-29T00:14:53.704Z,24.57
2022-07-29T00:17:20.430Z,24.71
2022-07-29T00:19:47.138Z,24.85
2022-07-29T00:22:13.782Z,24.88
2022-07-29T00:24:40.574Z,24.82
2022-07-29T00:27:07.391Z,24.80
2022-07-29T00:29:35.033Z,24.83
2022-07-29T00:32:03.285Z,24.77
2022-07-29T00:34:49.070Z,24.73
2022-07-29T00:37:15.770Z,24.71
2022-07-29T00:39:42.545Z,24.89
2022-07-29T00:42:10.611Z,24.92
2022-07-29T00:44:42.388Z,24.91
2022-07-29T00:47:11.560Z,24.73
2022-07-29T00:49:40.765Z,24.76
2022-07-29T00:52:10.069Z,24.84
2022-07-29T00:54:44.494Z,24.86
2022-07-29T00:57:13.074Z,24.80
2022-07-29T00:59:40.110Z,24.74
2022-07-29T01:02:06.925Z,24.66
2022-07-29T01:04:34.234Z,24.51
2022-07-29T01:07:02.907Z,24.27
2022-07-29T01:09:43.076Z,24.27
2022-07-29T01:12:16.188Z,24.16
2022-07-29T01:14:43.704Z,24.00
2022-07-29T01:17:21.531Z,23.98
2022-07-29T01:20:06.204Z,24.00
2022-07-29T01:22:36.066Z,24.15
2022-07-29T01:25:22.751Z,24.19
2022-07-29T01:28:11.775Z,24.05
2022-07-29T01:30:40.899Z,23.92
2022-07-29T01:33:34.527Z,23.79
2022-07-29T01:36:06.728Z,23.60
2022-07-29T01:38:36.433Z,23.53
2022-07-29T01:41:09.440Z,23.57
2022-07-29T01:43:52.970Z,23.68
2022-07-29T01:46:26.404Z,23.78
2022-07-29T01:49:02.877Z,23.84
2022-07-29T01:51:44.588Z,23.87
2022-07-29T01:54:25.933Z,23.72
2022-07-29T01:56:56.488Z,23.66
2022-07-29T01:59:25.759Z,23.42
2022-07-29T02:01:55.780Z,23.55
2022-07-29T02:04:26.626Z,23.56
2022-07-29T02:07:01.594Z,23.63
2022-07-29T02:09:31.306Z,23.53
2022-07-29T02:12:00.307Z,23.52
2022-07-29T02:14:31.360Z,23.44
2022-07-29T02:17:01.246Z,23.50
2022-07-29T02:19:28.790Z,23.54
2022-07-29T02:21:58.476Z,23.52
2022-07-29T02:24:26.868Z,23.43
2022-07-29T02:26:55.989Z,23.38
2022-07-29T02:29:25.798Z,23.29
2022-07-29T02:31:54.440Z,23.24
2022-07-29T02:34:22.755Z,23.26
2022-07-29T02:36:50.911Z,23.33
2022-07-29T02:39:18.618Z,23.51
2022-07-29T02:41:52.303Z,23.46
2022-07-29T02:44:24.546Z,23.46
2022-07-29T02:47:05.053Z,23.48
2022-07-29T02:49:49.691Z,23.40
2022-07-29T02:52:25.318Z,23.32
2022-07-29T02:55:03.145Z,23.36
2022-07-29T02:57:54.549Z,23.30
2022-07-29T03:00:27.582Z,23.39
2022-07-29T03:02:57.330Z,23.26
2022-07-29T03:05:24.481Z,23.30
2022-07-29T03:07:57.561Z,23.20
2022-07-29T03:10:28.557Z,23.32
2022-07-29T03:12:57.396Z,23.34
2022-07-29T03:15:26.959Z,23.42
2022-07-29T03:17:54.666Z,23.50
2022-07-29T03:20:21.860Z,23.32
2022-07-29T03:22:48.767Z,23.37
2022-07-29T03:25:17.695Z,23.27
2022-07-29T03:27:45.357Z,23.30
2022-07-29T03:30:18.430Z,23.25
2022-07-29T03:32:53.411Z,23.11
2022-07-29T03:35:21.428Z,23.06
2022-07-29T03:37:48.293Z,22.92
2022-07-29T03:40:20.978Z,22.90
2022-07-29T03:42:49.405Z,22.86
2022-07-29T03:45:19.631Z,22.95
2022-07-29T03:48:03.037Z,23.28
2022-07-29T03:50:31.521Z,23.18
2022-07-29T03:52:59.031Z,23.07
2022-07-29T03:55:27.454Z,23.07
2022-07-29T03:57:56.348Z,23.17
2022-07-29T04:00:25.133Z,23.17
2022-07-29T04:02:51.986Z,23.09
2022-07-29T04:05:19.449Z,23.06
2022-07-29T04:07:47.522Z,23.01
2022-07-29T04:10:16.625Z,23.00
2022-07-29T04:12:43.777Z,23.09
2022-07-29T04:15:11.388Z,23.10
2022-07-29T04:17:38.732Z,23.03
2022-07-29T04:20:06.347Z,23.05
2022-07-29T04:22:33.213Z,23.06
2022-07-29T04:25:03.964Z,23.33
2022-07-29T04:27:31.301Z,23.32
2022-07-29T04:29:58.102Z,23.33
2022-07-29T04:32:25.829Z,23.35
2022-07-29T04:34:52.567Z,23.42
2022-07-29T04:37:19.516Z,23.35
2022-07-29T04:39:46.184Z,23.35
2022-07-29T04:42:13.319Z,23.39
2022-07-29T04:44:43.145Z,23.40
2022-07-29T04:47:10.296Z,23.34
2022-07-29T04:49:40.277Z,23.42
2022-07-29T04:52:07.773Z,23.38
2022-07-29T04:54:34.543Z,23.45
2022-07-29T04:57:01.317Z,23.40
2022-07-29T04:59:28.106Z,23.52
2022-07-29T05:01:54.926Z,23.51
2022-07-29T05:04:21.778Z,23.58
2022-07-29T05:06:48.802Z,23.52
2022-07-29T05:09:15.728Z,23.46
2022-07-29T05:11:42.500Z,23.56
2022-07-29T05:14:09.239Z,23.55
2022-07-29T05:16:36.162Z,23.35
2022-07-29T05:19:02.987Z,23.57
2022-07-29T05:21:29.653Z,23.57
2022-07-29T05:23:56.381Z,23.53
2022-07-29T05:26:23.215Z,23.54
2022-07-29T05:28:50.106Z,23.57
2022-07-29T05:31:16.854Z,23.54
2022-07-29T05:33:43.609Z,23.68
2022-07-29T05:36:10.461Z,23.69
2022-07-29T05:38:37.428Z,23.57
2022-07-29T05:41:05.997Z,23.66
2022-07-29T05:43:33.202Z,23.78
2022-07-29T05:46:00.209Z,23.94
2022-07-29T05:48:27.047Z,24.06
2022-07-29T05:50:53.938Z,23.99
2022-07-29T05:53:21.161Z,23.99
2022-07-29T05:55:51.726Z,23.80
2022-07-29T05:58:18.969Z,23.56
2022-07-29T06:00:45.985Z,24.01
2022-07-29T06:03:12.761Z,23.94
2022-07-29T06:05:39.594Z,24.06
2022-07-29T06:08:08.024Z,24.17
2022-07-29T06:10:38.171Z,24.29
2022-07-29T06:13:05.009Z,24.40
2022-07-29T06:15:31.787Z,24.61
2022-07-29T06:18:00.543Z,24.63
2022-07-29T06:20:31.245Z,24.79
2022-07-29T06:22:59.418Z,24.83
2022-07-29T06:25:27.388Z,24.94
2022-07-29T06:27:54.089Z,25.05
2022-07-29T06:30:20.866Z,24.94
2022-07-29T06:32:48.074Z,24.66
2022-07-29T06:38:02.315Z,24.47
2022-07-29T06:40:47.793Z,24.40
2022-07-29T06:43:14.639Z,24.47
2022-07-29T06:45:42.478Z,24.47
2022-07-29T06:48:10.490Z,24.61
2022-07-29T06:50:37.355Z,24.61
2022-07-29T06:53:04.919Z,24.85
2022-07-29T06:55:31.790Z,24.85
2022-07-29T06:57:58.468Z,24.77
2022-07-29T07:00:25.604Z,24.47
2022-07-29T07:02:57.962Z,24.41
2022-07-29T07:05:24.712Z,24.78
2022-07-29T07:07:51.438Z,25.00
2022-07-29T07:10:19.525Z,25.06
2022-07-29T07:12:46.266Z,24.86
2022-07-29T07:15:13.447Z,25.00
2022-07-29T07:17:40.475Z,24.80
2022-07-29T07:20:07.900Z,24.84
2022-07-29T07:22:38.938Z,24.88
2022-07-29T07:25:07.480Z,25.35
2022-07-29T07:27:34.204Z,25.06
2022-07-29T07:30:01.778Z,25.19
2022-07-29T07:32:30.055Z,25.44
2022-07-29T07:34:56.926Z,25.79
2022-07-29T07:37:25.641Z,25.70
2022-07-29T07:39:53.270Z,25.69
2022-07-29T07:42:20.624Z,25.62
2022-07-29T07:45:11.944Z,25.54
2022-07-29T07:47:37.834Z,25.15
2022-07-29T07:50:11.714Z,24.93
2022-07-29T07:52:53.436Z,24.81
2022-07-29T07:55:20.960Z,24.90
2022-07-29T07:57:48.345Z,25.02
2022-07-29T08:00:16.595Z,24.90
2022-07-29T08:02:44.084Z,24.76
2022-07-29T08:05:13.095Z,24.75
2022-07-29T08:07:40.070Z,24.89
2022-07-29T08:10:07.211Z,24.89
2022-07-29T08:12:34.346Z,24.77
2022-07-29T08:15:01.284Z,24.78
2022-07-29T08:17:28.128Z,24.62
2022-07-29T08:19:55.400Z,24.76
2022-07-29T08:22:22.122Z,25.04
2022-07-29T08:24:53.416Z,24.95
2022-07-29T08:27:42.600Z,25.15
2022-07-29T08:30:08.862Z,25.77
2022-07-29T08:35:25.429Z,25.36
2022-07-29T08:37:52.997Z,25.31
2022-07-29T08:40:31.876Z,25.48
2022-07-29T08:43:04.942Z,25.48
2022-07-29T08:45:47.460Z,25.89
2022-07-29T08:48:23.536Z,25.91
2022-07-29T08:50:56.678Z,25.98
2022-07-29T08:53:27.346Z,26.09
2022-07-29T08:55:54.517Z,26.21
2022-07-29T08:58:23.214Z,26.26
2022-07-29T09:00:55.469Z,26.20
2022-07-29T09:03:30.536Z,25.77
2022-07-29T09:05:57.726Z,25.53
2022-07-29T09:08:24.738Z,25.58
2022-07-29T09:10:52.178Z,25.87
2022-07-29T09:13:19.094Z,26.11
2022-07-29T09:15:46.160Z,26.07
2022-07-29T09:18:26.757Z,26.14
2022-07-29T09:21:16.434Z,26.15
2022-07-29T09:24:10.870Z,26.41
2022-07-29T09:26:45.669Z,26.52
2022-07-29T09:29:18.090Z,26.71
2022-07-29T09:31:52.372Z,26.87
2022-07-29T09:34:27.224Z,26.74
2022-07-29T09:36:55.997Z,26.35
2022-07-29T09:39:38.112Z,26.35
2022-07-29T09:42:06.992Z,26.67
2022-07-29T09:44:43.846Z,26.65
2022-07-29T09:47:10.776Z,26.63
2022-07-29T09:49:55.028Z,26.83
2022-07-29T09:52:22.393Z,26.67
2022-07-29T09:54:49.126Z,26.51
2022-07-29T09:57:30.857Z,26.49
2022-07-29T10:00:00.350Z,26.28
2022-07-29T10:02:32.072Z,26.23
2022-07-29T10:05:01.607Z,26.13
2022-07-29T10:07:53.923Z,26.23
2022-07-29T10:10:23.895Z,26.43
2022-07-29T10:13:01.819Z,26.38
2022-07-29T10:15:38.105Z,26.46
2022-07-29T10:18:05.200Z,26.72
2022-07-29T10:20:31.938Z,26.94
2022-07-29T10:22:58.872Z,27.13
2022-07-29T10:25:26.819Z,27.13
2022-07-29T10:27:54.828Z,27.07
2022-07-29T10:30:23.330Z,27.21
2022-07-29T10:32:58.775Z,27.02
2022-07-29T10:35:46.985Z,26.65
2022-07-29T10:38:28.715Z,26.70
2022-07-29T10:44:26.371Z,26.88
2022-07-29T10:46:54.381Z,26.92
2022-07-29T10:49:27.701Z,26.99
2022-07-29T10:52:11.412Z,27.02
2022-07-29T10:54:38.222Z,26.94
2022-07-29T10:57:18.750Z,27.18
2022-07-29T10:59:48.372Z,27.06
2022-07-29T11:02:40.928Z,27.18
2022-07-29T11:05:10.079Z,27.30
2022-07-29T11:07:45.942Z,27.46
2022-07-29T11:10:13.933Z,27.34
2022-07-29T11:12:48.304Z,27.40
2022-07-29T11:15:21.589Z,27.53
2022-07-29T11:18:01.493Z,27.62
2022-07-29T11:20:54.776Z,27.69
2022-07-29T11:23:33.408Z,27.90
2022-07-29T11:26:22.872Z,27.97
2022-07-29T11:28:56.039Z,28.02
2022-07-29T11:31:43.945Z,27.94
2022-07-29T11:34:33.066Z,27.74
2022-07-29T11:37:07.628Z,27.77
2022-07-29T11:39:36.445Z,27.77
2022-07-29T11:42:32.391Z,27.90
2022-07-29T11:45:43.218Z,27.90
2022-07-29T11:48:32.082Z,27.97
2022-07-29T11:50:53.609Z,27.77
2022-07-29T11:53:20.940Z,27.78
2022-07-29T11:55:56.127Z,27.78
2022-07-29T11:58:26.003Z,27.75
2022-07-29T12:00:55.803Z,27.74
2022-07-29T12:03:34.858Z,27.66
2022-07-29T12:06:18.103Z,27.68
2022-07-29T12:08:45.755Z,27.92
2022-07-29T12:11:21.406Z,27.90
2022-07-29T12:13:50.893Z,27.96
2022-07-29T12:16:29.446Z,28.12
2022-07-29T12:19:02.034Z,27.99
2022-07-29T12:21:30.380Z,28.09
2022-07-29T12:24:02.099Z,28.12
2022-07-29T12:26:34.087Z,28.16
2022-07-29T12:29:03.358Z,28.26
2022-07-29T12:31:43.567Z,28.33
2022-07-29T12:34:13.919Z,28.35
2022-07-29T12:36:42.867Z,28.43
2022-07-29T12:39:11.527Z,28.38
2022-07-29T12:41:38.349Z,28.43
2022-07-29T12:44:05.546Z,28.42
2022-07-29T12:46:32.464Z,28.46
2022-07-29T12:48:59.651Z,28.40
2022-07-29T12:51:40.454Z,28.53
2022-07-29T12:54:14.276Z,28.67
2022-07-29T12:56:45.153Z,28.65
2022-07-29T12:59:20.809Z,28.78
2022-07-29T13:01:50.381Z,28.68
2022-07-29T13:04:34.459Z,28.51
2022-07-29T13:07:08.101Z,28.66
2022-07-29T13:09:39.135Z,28.53
2022-07-29T13:12:11.175Z,28.73
2022-07-29T13:14:40.911Z,28.61
2022-07-29T13:17:19.206Z,28.53
2022-07-29T13:19:52.374Z,28.64
2022-07-29T13:22:21.897Z,28.66
2022-07-29T13:24:57.995Z,28.59
2022-07-29T13:27:27.357Z,28.75
2022-07-29T13:29:57.521Z,28.72
2022-07-29T13:32:28.486Z,28.65
2022-07-29T13:35:01.761Z,28.61
2022-07-29T13:37:35.345Z,28.68
2022-07-29T13:40:04.067Z,28.81
2022-07-29T13:42:32.425Z,28.60
2022-07-29T13:44:59.868Z,28.54
2022-07-29T13:47:32.142Z,28.63
2022-07-29T13:50:05.355Z,28.69
2022-07-29T13:52:33.698Z,28.73
2022-07-29T13:55:01.203Z,28.96
2022-07-29T13:57:28.699Z,28.89
2022-07-29T13:59:56.154Z,28.86
2022-07-29T14:02:25.289Z,28.90
2022-07-29T14:04:53.986Z,29.03
2022-07-29T14:07:21.371Z,28.97
2022-07-29T14:09:48.110Z,28.85
2022-07-29T14:12:14.910Z,28.98
2022-07-29T14:14:42.438Z,29.12
2022-07-29T14:17:10.365Z,29.25
2022-07-29T14:19:38.626Z,29.61
2022-07-29T14:22:06.952Z,29.52
2022-07-29T14:24:36.405Z,29.48
2022-07-29T14:27:04.718Z,29.70
2022-07-29T14:29:37.015Z,29.69
2022-07-29T14:32:08.959Z,29.97
2022-07-29T14:34:37.543Z,29.76
2022-07-29T14:37:09.395Z,29.81
2022-07-29T14:39:42.799Z,29.92
2022-07-29T14:42:11.576Z,30.35
2022-07-29T14:44:42.014Z,30.73
2022-07-29T14:47:08.674Z,30.69
2022-07-29T14:49:36.185Z,30.54
2022-07-29T14:52:03.815Z,30.66
2022-07-29T14:54:30.433Z,31.16
2022-07-29T14:56:58.418Z,30.86
2022-07-29T14:59:26.453Z,30.83
2022-07-29T15:01:53.437Z,30.47
2022-07-29T15:04:20.468Z,30.43
2022-07-29T15:06:47.258Z,30.64
2022-07-29T15:09:14.215Z,30.53
2022-07-29T15:11:40.927Z,30.18
2022-07-29T15:14:07.803Z,30.14
2022-07-29T15:16:37.841Z,30.02
2022-07-29T15:19:05.554Z,30.58
2022-07-29T15:21:32.957Z,31.57
2022-07-29T15:23:59.855Z,32.73
2022-07-29T15:26:27.177Z,32.42
2022-07-29T15:28:54.017Z,32.32
2022-07-29T15:31:20.849Z,32.99
2022-07-29T15:33:47.712Z,31.96
2022-07-29T15:36:35.708Z,31.18
2022-07-29T15:39:02.071Z,30.61
2022-07-29T15:41:28.899Z,30.76
2022-07-29T15:43:55.565Z,31.68
2022-07-29T15:46:40.794Z,31.21
2022-07-29T15:49:08.803Z,30.65
2022-07-29T15:51:35.850Z,30.46
2022-07-29T15:54:04.473Z,30.50
2022-07-29T15:56:31.568Z,30.22
2022-07-29T15:58:58.824Z,30.28
2022-07-29T16:01:25.909Z,30.23
2022-07-29T16:03:53.243Z,30.22
2022-07-29T16:06:20.494Z,30.32
2022-07-29T16:08:47.436Z,30.33
2022-07-29T16:11:14.148Z,30.41
2022-07-29T16:13:41.058Z,30.21
2022-07-29T16:16:08.889Z,30.03
2022-07-29T16:18:35.980Z,30.10
2022-07-29T16:21:03.090Z,29.97
2022-07-29T16:23:30.039Z,30.02
2022-07-29T16:26:00.057Z,30.05
2022-07-29T16:28:31.122Z,30.23
2022-07-29T16:30:58.304Z,30.23
2022-07-29T16:33:25.575Z,30.19
2022-07-29T16:35:52.837Z,29.97
2022-07-29T16:38:20.423Z,29.81
2022-07-29T16:40:47.946Z,30.00
2022-07-29T16:43:15.246Z,29.80
2022-07-29T16:45:46.077Z,29.81
2022-07-29T16:48:15.078Z,29.82
2022-07-29T16:50:45.074Z,29.77
2022-07-29T16:53:11.721Z,29.58
2022-07-29T16:55:38.790Z,29.54
2022-07-29T16:58:10.030Z,29.52
2022-07-29T17:00:37.221Z,29.55
2022-07-29T17:03:05.441Z,29.76
2022-07-29T17:05:52.655Z,29.78
2022-07-29T17:08:20.061Z,29.65
2022-07-29T17:10:47.279Z,29.66
2022-07-29T17:13:14.464Z,29.55
2022-07-29T17:15:42.999Z,29.54
2022-07-29T17:18:12.357Z,29.58
2022-07-29T17:20:42.054Z,29.43
2022-07-29T17:23:09.415Z,29.44
2022-07-29T17:25:36.324Z,29.46
2022-07-29T17:28:03.196Z,29.35
2022-07-29T17:30:29.964Z,29.37
2022-07-29T17:32:56.843Z,29.19
2022-07-29T17:35:41.967Z,29.11
2022-07-29T17:38:08.671Z,28.74
2022-07-29T17:40:35.418Z,28.56
2022-07-29T17:43:02.723Z,28.36
2022-07-29T17:45:50.339Z,28.26
2022-07-29T17:48:16.294Z,28.30
2022-07-29T17:50:43.034Z,28.20
2022-07-29T17:53:16.136Z,28.23
2022-07-29T17:55:48.501Z,28.20
2022-07-29T17:58:15.974Z,28.14
2022-07-29T18:00:43.177Z,27.92
2022-07-29T18:03:10.236Z,27.83
2022-07-29T18:05:37.147Z,27.89
2022-07-29T18:08:04.088Z,27.78
2022-07-29T18:10:31.249Z,27.74
2022-07-29T18:12:57.979Z,27.76
2022-07-29T18:15:24.693Z,27.74
2022-07-29T18:17:56.457Z,27.66
2022-07-29T18:20:24.229Z,27.43
2022-07-29T18:22:51.204Z,27.57
2022-07-29T18:25:18.240Z,27.53
2022-07-29T18:27:45.172Z,27.49
2022-07-29T18:30:12.057Z,27.39
2022-07-29T18:32:38.759Z,27.31
2022-07-29T18:35:06.316Z,27.15
2022-07-29T18:38:01.384Z,27.04
2022-07-29T18:40:25.385Z,27.01
2022-07-29T18:42:53.136Z,26.93
2022-07-29T18:45:20.053Z,27.08
2022-07-29T18:47:49.064Z,27.06
2022-07-29T18:50:16.929Z,27.00
2022-07-29T18:52:46.102Z,26.83
2022-07-29T18:55:13.759Z,26.81
2022-07-29T18:57:54.117Z,26.77
2022-07-29T19:00:24.247Z,26.66
2022-07-29T19:02:52.597Z,26.67
2022-07-29T19:05:19.921Z,26.67
2022-07-29T19:07:46.674Z,26.55
2022-07-29T19:10:13.611Z,26.50
2022-07-29T19:12:40.571Z,26.52
2022-07-29T19:15:08.010Z,26.52
2022-07-29T19:17:34.754Z,26.54
2022-07-29T19:20:02.058Z,26.52
2022-07-29T19:22:30.773Z,26.29
2022-07-29T19:24:57.827Z,26.41
2022-07-29T19:27:25.904Z,26.34
2022-07-29T19:29:52.568Z,26.39
2022-07-29T19:32:24.694Z,26.27
2022-07-29T19:35:11.517Z,26.19
2022-07-29T19:37:38.213Z,26.30
2022-07-29T19:40:06.273Z,26.26
2022-07-29T19:42:33.032Z,26.18
2022-07-29T19:44:59.957Z,26.25
2022-07-29T19:47:26.829Z,26.13
2022-07-29T19:49:53.624Z,26.22
2022-07-29T19:52:20.646Z,26.09
2022-07-29T19:54:47.370Z,26.40
2022-07-29T19:57:14.352Z,26.33
2022-07-29T19:59:41.320Z,26.26
2022-07-29T20:02:11.039Z,26.18
2022-07-29T20:04:38.614Z,26.31
2022-07-29T20:07:06.385Z,26.23
2022-07-29T20:09:33.442Z,26.34
2022-07-29T20:12:00.405Z,26.33
2022-07-29T20:14:27.101Z,26.31
2022-07-29T20:16:54.362Z,26.36
2022-07-29T20:19:21.657Z,26.32
2022-07-29T20:21:48.450Z,26.38
2022-07-29T20:24:15.105Z,26.12
2022-07-29T20:26:41.873Z,26.22
2022-07-29T20:29:09.167Z,26.25
2022-07-29T20:31:36.143Z,26.27
2022-07-29T20:34:03.804Z,26.29
2022-07-29T20:36:30.962Z,26.22
2022-07-29T20:38:59.930Z,26.27
2022-07-29T20:41:27.071Z,26.32
2022-07-29T20:43:53.785Z,26.27
2022-07-29T20:46:20.614Z,26.21
2022-07-29T20:48:47.842Z,26.15
2022-07-29T20:51:14.857Z,25.98
2022-07-29T20:53:41.905Z,25.95
2022-07-29T20:56:08.675Z,25.97
2022-07-29T20:58:36.398Z,25.89
2022-07-29T21:01:07.997Z,25.99
2022-07-29T21:03:35.528Z,25.90
2022-07-29T21:06:02.544Z,25.80
2022-07-29T21:08:29.350Z,25.92
2022-07-29T21:10:56.568Z,25.94
2022-07-29T21:13:25.446Z,25.91
2022-07-29T21:15:55.809Z,25.75
2022-07-29T21:18:33.048Z,25.79
2022-07-29T21:21:01.341Z,25.79
2022-07-29T21:23:28.461Z,25.87
2022-07-29T21:25:55.995Z,25.82
2022-07-29T21:28:35.775Z,25.82
2022-07-29T21:31:12.767Z,25.91
2022-07-29T21:33:41.463Z,25.77
2022-07-29T21:36:42.760Z,25.72
2022-07-29T21:38:56.973Z,25.86
2022-07-29T21:41:23.784Z,25.88
2022-07-29T21:43:50.992Z,25.97
2022-07-29T21:46:18.414Z,25.85
2022-07-29T21:48:45.498Z,25.68
2022-07-29T21:51:12.293Z,25.60
2022-07-29T21:53:40.157Z,25.40
2022-07-29T21:56:09.373Z,25.31
2022-07-29T21:58:41.673Z,25.16
2022-07-29T22:01:08.585Z,25.27
2022-07-29T22:03:35.337Z,25.46
2022-07-29T22:06:02.113Z,25.55
2022-07-29T22:08:28.776Z,25.44
2022-07-29T22:10:55.446Z,25.40
2022-07-29T22:13:22.174Z,25.49
2022-07-29T22:15:48.935Z,25.42
2022-07-29T22:18:20.774Z,25.43
2022-07-29T22:20:51.362Z,25.41
2022-07-29T22:23:18.205Z,25.22
2022-07-29T22:25:44.967Z,25.27
2022-07-29T22:28:11.745Z,25.13
2022-07-29T22:30:38.401Z,25.04
2022-07-29T22:33:05.199Z,25.24
2022-07-29T22:35:31.871Z,25.27
2022-07-29T22:37:58.529Z,25.14
2022-07-29T22:40:30.556Z,25.12
2022-07-29T22:42:57.727Z,25.19
2022-07-29T22:45:24.407Z,24.95
2022-07-29T22:47:55.943Z,24.83
2022-07-29T22:50:24.660Z,24.88
2022-07-29T22:52:51.364Z,24.81
2022-07-29T22:55:18.185Z,24.85
2022-07-29T22:57:44.943Z,24.74
2022-07-29T23:00:13.485Z,24.84
2022-07-29T23:02:41.304Z,24.80
2022-07-29T23:05:11.546Z,24.78
2022-07-29T23:07:38.543Z,24.81
2022-07-29T23:10:05.790Z,24.82
2022-07-29T23:12:32.459Z,24.77
2022-07-29T23:15:00.544Z,24.79
2022-07-29T23:17:27.398Z,24.84
2022-07-29T23:19:54.193Z,24.95
2022-07-29T23:22:20.899Z,24.87
2022-07-29T23:24:47.702Z,24.77
2022-07-29T23:27:14.424Z,24.67
2022-07-29T23:29:41.294Z,24.70
2022-07-29T23:32:08.121Z,24.69
2022-07-29T23:34:35.246Z,24.82
2022-07-29T23:37:02.286Z,24.78
2022-07-29T23:39:29.355Z,24.88
2022-07-29T23:41:56.112Z,24.64
2022-07-29T23:44:22.821Z,24.69
2022-07-29T23:46:49.670Z,24.78
2022-07-29T23:49:16.652Z,24.65
2022-07-29T23:51:43.487Z,24.72
2022-07-29T23:54:10.220Z,24.64
2022-07-29T23:56:36.977Z,24.55
2022-07-29T23:59:05.751Z,24.57
